Portada
METAR-TAF:

METAR-TAF

Aeroports :

Nouméa, Nova Caledònia

latitud: 22-15-30S, longitud: 166-28-22E, altitud: 3 m

METAR: manca

Hora: 18:34 (07:34 UTC)

Pronòstic

L'informe es va fer fa 2 hores i 34 minuts, a les 05:00 UTC
Pronòstic vàlid del 19 a les 06 UTC al 20 a les 06 UTC
Vent 20 kt del Est/Sud-Est
Visibilitat 10 km o més
Escasses núvols a una alçada de 4500 ft
Evolucionant progressivament
l' 19 a les 08 UTC al 19 a les 10 UTC
Vent 8 kt del Est/Nord-Est
Evolucionant progressivament
l' 19 a les 22 UTC al 19 a les 24 UTC
Vent 16 kt del Sud-Est

TAF: NWWM 190500Z 1906/2006 12020KT 9999 FEW045 BECMG 1908/1910 07008KT BECMG 1922/1924 13016KT

Observacions i pronòstics meteorològics de més de 4000 aeroports (METAR i TAF).

Les estacions disponibles són els punts grocs i vermells al mapa.

Posi el ratolí al punt desitjat per veure el nom de l'estació.

Feu clic per veure les observacions i els pronòstics meteorològics.

Per canviar el mapa: feu clic els botons verds amb una creu de color negre per apropar; al botó verd amb un guió per allunyar la imatge; o en les fletxes verdes per a mapes adjacents.


METAR-TAF: